sensor_id;sensor_type;location;lat;lon;timestamp;temperature;humidity
32027;DHT22;18543;50.848;4.596;2022-09-30T00:01:23;20.80;49.50
32027;DHT22;18543;50.848;4.596;2022-09-30T00:03:56;20.80;49.50
32027;DHT22;18543;50.848;4.596;2022-09-30T00:06:24;20.80;49.60
32027;DHT22;18543;50.848;4.596;2022-09-30T00:08:52;20.80;49.60
32027;DHT22;18543;50.848;4.596;2022-09-30T00:11:22;20.80;49.50
32027;DHT22;18543;50.848;4.596;2022-09-30T00:13:52;20.80;49.60
32027;DHT22;18543;50.848;4.596;2022-09-30T00:16:19;20.80;49.50
32027;DHT22;18543;50.848;4.596;2022-09-30T00:18:47;20.80;49.30
32027;DHT22;18543;50.848;4.596;2022-09-30T00:21:15;20.80;49.30
32027;DHT22;18543;50.848;4.596;2022-09-30T00:23:43;20.80;49.30
32027;DHT22;18543;50.848;4.596;2022-09-30T00:26:15;20.70;49.20
32027;DHT22;18543;50.848;4.596;2022-09-30T00:28:43;20.80;49.30
32027;DHT22;18543;50.848;4.596;2022-09-30T00:31:12;20.80;49.20
32027;DHT22;18543;50.848;4.596;2022-09-30T00:33:40;20.80;49.20
32027;DHT22;18543;50.848;4.596;2022-09-30T00:36:07;20.80;49.10
32027;DHT22;18543;50.848;4.596;2022-09-30T00:38:34;20.70;49.00
32027;DHT22;18543;50.848;4.596;2022-09-30T00:41:02;20.80;49.20
32027;DHT22;18543;50.848;4.596;2022-09-30T00:43:42;20.70;49.10
32027;DHT22;18543;50.848;4.596;2022-09-30T00:46:34;20.70;49.00
32027;DHT22;18543;50.848;4.596;2022-09-30T00:49:17;20.70;49.00
32027;DHT22;18543;50.848;4.596;2022-09-30T00:51:47;20.70;48.90
32027;DHT22;18543;50.848;4.596;2022-09-30T00:54:19;20.70;48.90
32027;DHT22;18543;50.848;4.596;2022-09-30T00:56:57;20.70;49.00
32027;DHT22;18543;50.848;4.596;2022-09-30T00:59:34;20.70;48.90
32027;DHT22;18543;50.848;4.596;2022-09-30T01:02:03;20.70;48.70
32027;DHT22;18543;50.848;4.596;2022-09-30T01:04:31;20.70;48.70
32027;DHT22;18543;50.848;4.596;2022-09-30T01:07:11;20.70;48.80
32027;DHT22;18543;50.848;4.596;2022-09-30T01:09:38;20.70;48.90
32027;DHT22;18543;50.848;4.596;2022-09-30T01:12:15;20.70;48.70
32027;DHT22;18543;50.848;4.596;2022-09-30T01:14:45;20.70;48.80
32027;DHT22;18543;50.848;4.596;2022-09-30T01:20:39;20.70;48.60
32027;DHT22;18543;50.848;4.596;2022-09-30T01:23:43;20.70;48.60
32027;DHT22;18543;50.848;4.596;2022-09-30T01:26:38;20.70;48.60
32027;DHT22;18543;50.848;4.596;2022-09-30T01:29:42;20.70;48.50
32027;DHT22;18543;50.848;4.596;2022-09-30T01:35:42;20.60;48.40
32027;DHT22;18543;50.848;4.596;2022-09-30T01:38:27;20.60;48.40
32027;DHT22;18543;50.848;4.596;2022-09-30T01:43:41;20.70;48.40
32027;DHT22;18543;50.848;4.596;2022-09-30T01:46:41;20.70;48.30
32027;DHT22;18543;50.848;4.596;2022-09-30T01:49:12;20.60;48.20
32027;DHT22;18543;50.848;4.596;2022-09-30T01:51:44;20.60;48.20
32027;DHT22;18543;50.848;4.596;2022-09-30T01:54:16;20.60;48.20
32027;DHT22;18543;50.848;4.596;2022-09-30T01:56:56;20.60;48.30
32027;DHT22;18543;50.848;4.596;2022-09-30T02:02:05;20.60;48.10
32027;DHT22;18543;50.848;4.596;2022-09-30T02:04:44;20.60;48.00
32027;DHT22;18543;50.848;4.596;2022-09-30T02:07:23;20.60;48.10
32027;DHT22;18543;50.848;4.596;2022-09-30T02:09:58;20.60;48.00
32027;DHT22;18543;50.848;4.596;2022-09-30T02:12:31;20.60;48.00
32027;DHT22;18543;50.848;4.596;2022-09-30T02:15:21;20.60;48.00
32027;DHT22;18543;50.848;4.596;2022-09-30T02:17:58;20.60;48.00
32027;DHT22;18543;50.848;4.596;2022-09-30T02:20:30;20.60;48.00
32027;DHT22;18543;50.848;4.596;2022-09-30T02:23:07;20.60;48.10
32027;DHT22;18543;50.848;4.596;2022-09-30T02:25:39;20.60;48.10
32027;DHT22;18543;50.848;4.596;2022-09-30T02:28:11;20.60;47.90
32027;DHT22;18543;50.848;4.596;2022-09-30T02:30:44;20.60;47.80
32027;DHT22;18543;50.848;4.596;2022-09-30T02:33:18;20.60;47.80
32027;DHT22;18543;50.848;4.596;2022-09-30T02:35:51;20.60;47.80
32027;DHT22;18543;50.848;4.596;2022-09-30T02:38:30;20.60;47.70
32027;DHT22;18543;50.848;4.596;2022-09-30T02:41:07;20.60;47.70
32027;DHT22;18543;50.848;4.596;2022-09-30T02:43:36;20.60;47.80
32027;DHT22;18543;50.848;4.596;2022-09-30T02:46:17;20.60;47.90
32027;DHT22;18543;50.848;4.596;2022-09-30T02:49:03;20.60;47.70
32027;DHT22;18543;50.848;4.596;2022-09-30T02:51:44;20.60;47.60
32027;DHT22;18543;50.848;4.596;2022-09-30T02:56:56;20.60;47.50
32027;DHT22;18543;50.848;4.596;2022-09-30T02:59:24;20.60;47.50
32027;DHT22;18543;50.848;4.596;2022-09-30T03:01:52;20.50;47.40
32027;DHT22;18543;50.848;4.596;2022-09-30T03:04:22;20.50;47.50
32027;DHT22;18543;50.848;4.596;2022-09-30T03:06:50;20.60;47.60
32027;DHT22;18543;50.848;4.596;2022-09-30T03:09:17;20.50;47.60
32027;DHT22;18543;50.848;4.596;2022-09-30T03:11:44;20.50;47.50
32027;DHT22;18543;50.848;4.596;2022-09-30T03:17:35;20.50;47.50
32027;DHT22;18543;50.848;4.596;2022-09-30T03:34:36;20.50;47.30
32027;DHT22;18543;50.848;4.596;2022-09-30T03:37:24;20.50;47.30
32027;DHT22;18543;50.848;4.596;2022-09-30T03:40:25;20.50;47.30
32027;DHT22;18543;50.848;4.596;2022-09-30T03:43:02;20.50;47.20
32027;DHT22;18543;50.848;4.596;2022-09-30T03:45:41;20.60;47.30
32027;DHT22;18543;50.848;4.596;2022-09-30T03:48:10;20.50;47.10
32027;DHT22;18543;50.848;4.596;2022-09-30T03:50:40;20.50;47.10
32027;DHT22;18543;50.848;4.596;2022-09-30T03:53:11;20.50;47.20
32027;DHT22;18543;50.848;4.596;2022-09-30T03:55:53;20.50;47.20
32027;DHT22;18543;50.848;4.596;2022-09-30T03:58:21;20.50;47.60
32027;DHT22;18543;50.848;4.596;2022-09-30T04:00:53;20.50;47.00
32027;DHT22;18543;50.848;4.596;2022-09-30T04:03:21;20.50;47.00
32027;DHT22;18543;50.848;4.596;2022-09-30T04:05:49;20.50;47.00
32027;DHT22;18543;50.848;4.596;2022-09-30T04:08:16;20.50;47.00
32027;DHT22;18543;50.848;4.596;2022-09-30T04:10:43;20.50;46.90
32027;DHT22;18543;50.848;4.596;2022-09-30T04:13:10;20.50;46.90
32027;DHT22;18543;50.848;4.596;2022-09-30T04:15:37;20.40;47.00
32027;DHT22;18543;50.848;4.596;2022-09-30T04:18:04;20.40;46.90
32027;DHT22;18543;50.848;4.596;2022-09-30T04:20:31;20.50;46.90
32027;DHT22;18543;50.848;4.596;2022-09-30T04:22:59;20.40;46.80
32027;DHT22;18543;50.848;4.596;2022-09-30T04:25:27;20.40;47.50
32027;DHT22;18543;50.848;4.596;2022-09-30T04:27:55;20.50;46.90
32027;DHT22;18543;50.848;4.596;2022-09-30T04:30:22;20.50;46.90
32027;DHT22;18543;50.848;4.596;2022-09-30T04:32:52;20.50;46.80
32027;DHT22;18543;50.848;4.596;2022-09-30T04:35:19;20.50;46.70
32027;DHT22;18543;50.848;4.596;2022-09-30T04:37:46;20.50;46.80
32027;DHT22;18543;50.848;4.596;2022-09-30T04:40:14;20.40;46.80
32027;DHT22;18543;50.848;4.596;2022-09-30T04:42:42;20.50;46.90
32027;DHT22;18543;50.848;4.596;2022-09-30T04:45:12;20.50;46.80
32027;DHT22;18543;50.848;4.596;2022-09-30T04:47:43;20.50;46.60
32027;DHT22;18543;50.848;4.596;2022-09-30T04:50:13;20.40;46.60
32027;DHT22;18543;50.848;4.596;2022-09-30T04:52:43;20.40;46.60
32027;DHT22;18543;50.848;4.596;2022-09-30T04:55:10;20.40;46.60
32027;DHT22;18543;50.848;4.596;2022-09-30T04:57:37;20.40;46.70
32027;DHT22;18543;50.848;4.596;2022-09-30T05:00:05;20.40;46.70
32027;DHT22;18543;50.848;4.596;2022-09-30T05:02:34;20.40;46.50
32027;DHT22;18543;50.848;4.596;2022-09-30T05:05:02;20.40;46.50
32027;DHT22;18543;50.848;4.596;2022-09-30T05:07:31;20.40;46.50
32027;DHT22;18543;50.848;4.596;2022-09-30T05:09:58;20.40;46.40
32027;DHT22;18543;50.848;4.596;2022-09-30T05:12:25;20.30;46.30
32027;DHT22;18543;50.848;4.596;2022-09-30T05:14:52;20.30;46.40
32027;DHT22;18543;50.848;4.596;2022-09-30T05:17:20;20.30;46.40
32027;DHT22;18543;50.848;4.596;2022-09-30T05:19:47;20.30;46.30
32027;DHT22;18543;50.848;4.596;2022-09-30T05:22:14;20.30;46.30
32027;DHT22;18543;50.848;4.596;2022-09-30T05:24:41;20.40;46.30
32027;DHT22;18543;50.848;4.596;2022-09-30T05:27:08;20.30;46.20
32027;DHT22;18543;50.848;4.596;2022-09-30T05:29:34;20.30;46.30
32027;DHT22;18543;50.848;4.596;2022-09-30T05:32:03;20.30;46.30
32027;DHT22;18543;50.848;4.596;2022-09-30T05:34:31;20.40;46.40
32027;DHT22;18543;50.848;4.596;2022-09-30T05:36:58;20.40;46.40
32027;DHT22;18543;50.848;4.596;2022-09-30T05:39:24;20.30;46.20
32027;DHT22;18543;50.848;4.596;2022-09-30T05:41:51;20.30;46.30
32027;DHT22;18543;50.848;4.596;2022-09-30T05:44:18;20.30;46.30
32027;DHT22;18543;50.848;4.596;2022-09-30T05:46:45;20.10;44.50
32027;DHT22;18543;50.848;4.596;2022-09-30T05:49:13;19.90;44.90
32027;DHT22;18543;50.848;4.596;2022-09-30T05:51:40;19.30;43.20
32027;DHT22;18543;50.848;4.596;2022-09-30T05:54:10;18.40;44.00
32027;DHT22;18543;50.848;4.596;2022-09-30T05:56:37;17.60;45.30
32027;DHT22;18543;50.848;4.596;2022-09-30T05:59:05;16.90;46.50
32027;DHT22;18543;50.848;4.596;2022-09-30T06:01:32;16.40;47.80
32027;DHT22;18543;50.848;4.596;2022-09-30T06:03:59;15.80;48.90
32027;DHT22;18543;50.848;4.596;2022-09-30T06:06:26;15.50;50.00
32027;DHT22;18543;50.848;4.596;2022-09-30T06:08:53;15.30;50.70
32027;DHT22;18543;50.848;4.596;2022-09-30T06:11:22;15.10;51.40
32027;DHT22;18543;50.848;4.596;2022-09-30T06:13:50;14.90;52.10
32027;DHT22;18543;50.848;4.596;2022-09-30T06:16:18;14.90;52.10
32027;DHT22;18543;50.848;4.596;2022-09-30T06:18:45;14.80;52.20
32027;DHT22;18543;50.848;4.596;2022-09-30T06:21:14;14.70;52.70
32027;DHT22;18543;50.848;4.596;2022-09-30T06:23:42;14.60;52.60
32027;DHT22;18543;50.848;4.596;2022-09-30T06:26:11;14.50;53.20
32027;DHT22;18543;50.848;4.596;2022-09-30T06:28:39;14.40;53.50
32027;DHT22;18543;50.848;4.596;2022-09-30T06:31:07;14.30;54.10
32027;DHT22;18543;50.848;4.596;2022-09-30T06:33:34;14.30;54.30
32027;DHT22;18543;50.848;4.596;2022-09-30T06:36:02;14.40;55.00
32027;DHT22;18543;50.848;4.596;2022-09-30T06:38:31;14.30;54.10
32027;DHT22;18543;50.848;4.596;2022-09-30T06:40:59;14.20;54.40
32027;DHT22;18543;50.848;4.596;2022-09-30T06:43:27;14.10;54.90
32027;DHT22;18543;50.848;4.596;2022-09-30T06:45:54;14.10;55.50
32027;DHT22;18543;50.848;4.596;2022-09-30T06:48:39;14.10;56.10
32027;DHT22;18543;50.848;4.596;2022-09-30T06:51:06;14.00;57.20
32027;DHT22;18543;50.848;4.596;2022-09-30T06:53:37;14.00;57.40
32027;DHT22;18543;50.848;4.596;2022-09-30T06:56:05;14.00;57.80
32027;DHT22;18543;50.848;4.596;2022-09-30T06:58:32;14.00;58.20
32027;DHT22;18543;50.848;4.596;2022-09-30T07:01:03;14.00;58.10
32027;DHT22;18543;50.848;4.596;2022-09-30T07:03:33;14.00;58.80
32027;DHT22;18543;50.848;4.596;2022-09-30T07:06:03;14.10;59.30
32027;DHT22;18543;50.848;4.596;2022-09-30T07:08:31;14.10;59.40
32027;DHT22;18543;50.848;4.596;2022-09-30T07:10:59;14.10;60.20
32027;DHT22;18543;50.848;4.596;2022-09-30T07:13:29;14.10;60.50
32027;DHT22;18543;50.848;4.596;2022-09-30T07:15:56;14.20;61.00
32027;DHT22;18543;50.848;4.596;2022-09-30T07:18:24;14.30;61.40
32027;DHT22;18543;50.848;4.596;2022-09-30T07:20:55;14.30;61.80
32027;DHT22;18543;50.848;4.596;2022-09-30T07:23:22;14.30;62.50
32027;DHT22;18543;50.848;4.596;2022-09-30T07:25:54;14.30;63.00
32027;DHT22;18543;50.848;4.596;2022-09-30T07:28:27;14.40;63.80
32027;DHT22;18543;50.848;4.596;2022-09-30T07:30:57;14.50;64.50
32027;DHT22;18543;50.848;4.596;2022-09-30T07:33:45;14.50;64.90
32027;DHT22;18543;50.848;4.596;2022-09-30T07:36:14;14.60;65.60
32027;DHT22;18543;50.848;4.596;2022-09-30T07:38:45;14.70;66.40
32027;DHT22;18543;50.848;4.596;2022-09-30T07:41:18;14.80;66.80
32027;DHT22;18543;50.848;4.596;2022-09-30T07:43:47;14.90;67.30
32027;DHT22;18543;50.848;4.596;2022-09-30T07:46:15;15.00;67.90
32027;DHT22;18543;50.848;4.596;2022-09-30T07:48:47;15.10;68.70
32027;DHT22;18543;50.848;4.596;2022-09-30T07:51:21;15.30;68.60
32027;DHT22;18543;50.848;4.596;2022-09-30T07:53:50;15.40;68.60
32027;DHT22;18543;50.848;4.596;2022-09-30T07:56:21;15.50;69.10
32027;DHT22;18543;50.848;4.596;2022-09-30T07:58:51;15.70;69.10
32027;DHT22;18543;50.848;4.596;2022-09-30T08:01:19;15.90;68.80
32027;DHT22;18543;50.848;4.596;2022-09-30T08:03:45;16.10;68.80
32027;DHT22;18543;50.848;4.596;2022-09-30T08:06:16;16.10;68.70
32027;DHT22;18543;50.848;4.596;2022-09-30T08:08:44;16.10;68.90
32027;DHT22;18543;50.848;4.596;2022-09-30T08:11:12;16.10;69.50
32027;DHT22;18543;50.848;4.596;2022-09-30T08:13:40;16.10;69.80
32027;DHT22;18543;50.848;4.596;2022-09-30T08:16:09;16.10;70.20
32027;DHT22;18543;50.848;4.596;2022-09-30T08:18:36;16.20;71.20
32027;DHT22;18543;50.848;4.596;2022-09-30T08:21:04;16.20;71.20
32027;DHT22;18543;50.848;4.596;2022-09-30T08:23:34;16.30;71.20
32027;DHT22;18543;50.848;4.596;2022-09-30T08:26:03;16.30;71.30
32027;DHT22;18543;50.848;4.596;2022-09-30T08:28:30;16.40;72.10
32027;DHT22;18543;50.848;4.596;2022-09-30T08:31:05;16.50;71.50
32027;DHT22;18543;50.848;4.596;2022-09-30T08:33:33;16.60;72.30
32027;DHT22;18543;50.848;4.596;2022-09-30T08:36:11;16.60;71.70
32027;DHT22;18543;50.848;4.596;2022-09-30T08:38:39;16.80;71.80
32027;DHT22;18543;50.848;4.596;2022-09-30T08:41:46;16.90;71.40
32027;DHT22;18543;50.848;4.596;2022-09-30T08:44:30;17.00;71.00
32027;DHT22;18543;50.848;4.596;2022-09-30T08:52:42;17.30;71.50
32027;DHT22;18543;50.848;4.596;2022-09-30T08:55:21;17.50;70.20
32027;DHT22;18543;50.848;4.596;2022-09-30T08:57:49;17.70;69.90
32027;DHT22;18543;50.848;4.596;2022-09-30T09:00:18;17.90;69.80
32027;DHT22;18543;50.848;4.596;2022-09-30T09:02:59;18.00;69.10
32027;DHT22;18543;50.848;4.596;2022-09-30T09:05:55;18.20;68.40
32027;DHT22;18543;50.848;4.596;2022-09-30T09:08:51;18.30;68.20
32027;DHT22;18543;50.848;4.596;2022-09-30T09:14:45;18.60;68.50
32027;DHT22;18543;50.848;4.596;2022-09-30T09:17:25;18.80;68.00
32027;DHT22;18543;50.848;4.596;2022-09-30T09:20:13;18.90;67.60
32027;DHT22;18543;50.848;4.596;2022-09-30T09:22:41;18.90;67.50
32027;DHT22;18543;50.848;4.596;2022-09-30T09:25:14;19.00;67.30
32027;DHT22;18543;50.848;4.596;2022-09-30T09:29:02;19.10;67.00
32027;DHT22;18543;50.848;4.596;2022-09-30T09:30:58;19.10;67.20
32027;DHT22;18543;50.848;4.596;2022-09-30T09:33:29;19.30;67.70
32027;DHT22;18543;50.848;4.596;2022-09-30T09:39:53;19.60;66.70
32027;DHT22;18543;50.848;4.596;2022-09-30T09:42:49;19.70;65.80
32027;DHT22;18543;50.848;4.596;2022-09-30T09:45:36;19.90;65.80
32027;DHT22;18543;50.848;4.596;2022-09-30T09:48:12;20.00;64.70
32027;DHT22;18543;50.848;4.596;2022-09-30T09:51:05;20.10;64.60
32027;DHT22;18543;50.848;4.596;2022-09-30T09:53:49;20.20;64.60
32027;DHT22;18543;50.848;4.596;2022-09-30T09:56:20;20.40;63.80
32027;DHT22;18543;50.848;4.596;2022-09-30T10:01:37;20.40;62.60
32027;DHT22;18543;50.848;4.596;2022-09-30T10:04:12;20.50;62.70
32027;DHT22;18543;50.848;4.596;2022-09-30T10:06:53;20.50;63.50
32027;DHT22;18543;50.848;4.596;2022-09-30T10:09:34;20.60;62.70
32027;DHT22;18543;50.848;4.596;2022-09-30T10:14:38;20.80;62.10
32027;DHT22;18543;50.848;4.596;2022-09-30T10:17:24;20.90;61.90
32027;DHT22;18543;50.848;4.596;2022-09-30T10:19:58;21.00;61.50
32027;DHT22;18543;50.848;4.596;2022-09-30T10:22:30;21.00;61.30
32027;DHT22;18543;50.848;4.596;2022-09-30T10:28:19;21.10;60.90
32027;DHT22;18543;50.848;4.596;2022-09-30T10:36:07;21.20;60.00
32027;DHT22;18543;50.848;4.596;2022-09-30T10:38:36;21.20;59.80
32027;DHT22;18543;50.848;4.596;2022-09-30T10:41:04;21.30;59.70
32027;DHT22;18543;50.848;4.596;2022-09-30T10:43:43;21.30;59.40
32027;DHT22;18543;50.848;4.596;2022-09-30T10:46:10;21.30;58.70
32027;DHT22;18543;50.848;4.596;2022-09-30T10:48:52;21.30;58.80
32027;DHT22;18543;50.848;4.596;2022-09-30T10:51:26;21.20;58.10
32027;DHT22;18543;50.848;4.596;2022-09-30T10:53:55;21.10;58.40
32027;DHT22;18543;50.848;4.596;2022-09-30T10:56:43;21.20;58.50
32027;DHT22;18543;50.848;4.596;2022-09-30T10:59:34;21.30;58.70
32027;DHT22;18543;50.848;4.596;2022-09-30T11:04:41;21.40;58.60
32027;DHT22;18543;50.848;4.596;2022-09-30T11:07:24;21.50;58.50
32027;DHT22;18543;50.848;4.596;2022-09-30T11:10:13;21.50;57.90
32027;DHT22;18543;50.848;4.596;2022-09-30T11:12:50;21.60;57.70
32027;DHT22;18543;50.848;4.596;2022-09-30T11:15:29;21.50;57.50
32027;DHT22;18543;50.848;4.596;2022-09-30T11:17:59;21.60;57.50
32027;DHT22;18543;50.848;4.596;2022-09-30T11:20:33;21.70;57.30
32027;DHT22;18543;50.848;4.596;2022-09-30T11:29:22;21.80;56.50
32027;DHT22;18543;50.848;4.596;2022-09-30T11:34:30;21.70;55.30
32027;DHT22;18543;50.848;4.596;2022-09-30T11:40:29;21.70;56.70
32027;DHT22;18543;50.848;4.596;2022-09-30T11:43:30;21.70;56.40
32027;DHT22;18543;50.848;4.596;2022-09-30T11:46:23;21.70;56.40
32027;DHT22;18543;50.848;4.596;2022-09-30T11:52:34;21.70;56.40
32027;DHT22;18543;50.848;4.596;2022-09-30T11:55:28;21.70;56.60
32027;DHT22;18543;50.848;4.596;2022-09-30T12:00:54;21.70;56.80
32027;DHT22;18543;50.848;4.596;2022-09-30T12:03:37;21.80;56.90
32027;DHT22;18543;50.848;4.596;2022-09-30T12:09:38;21.80;56.40
32027;DHT22;18543;50.848;4.596;2022-09-30T12:12:11;21.80;55.90
32027;DHT22;18543;50.848;4.596;2022-09-30T12:14:58;21.80;55.70
32027;DHT22;18543;50.848;4.596;2022-09-30T12:17:30;21.80;55.70
32027;DHT22;18543;50.848;4.596;2022-09-30T12:20:17;21.80;55.70
32027;DHT22;18543;50.848;4.596;2022-09-30T12:22:48;21.80;55.70
32027;DHT22;18543;50.848;4.596;2022-09-30T12:25:24;21.90;55.50
32027;DHT22;18543;50.848;4.596;2022-09-30T12:28:02;21.90;55.30
32027;DHT22;18543;50.848;4.596;2022-09-30T12:30:59;21.90;55.20
32027;DHT22;18543;50.848;4.596;2022-09-30T12:47:26;22.20;53.90
32027;DHT22;18543;50.848;4.596;2022-09-30T12:49:57;22.30;54.10
32027;DHT22;18543;50.848;4.596;2022-09-30T12:52:25;22.20;54.20
32027;DHT22;18543;50.848;4.596;2022-09-30T12:55:06;22.10;54.30
32027;DHT22;18543;50.848;4.596;2022-09-30T12:57:38;22.20;54.70
32027;DHT22;18543;50.848;4.596;2022-09-30T13:00:16;22.20;54.40
32027;DHT22;18543;50.848;4.596;2022-09-30T13:02:46;22.30;54.60
32027;DHT22;18543;50.848;4.596;2022-09-30T13:05:50;22.30;54.50
32027;DHT22;18543;50.848;4.596;2022-09-30T13:10:58;22.30;54.10
32027;DHT22;18543;50.848;4.596;2022-09-30T13:13:28;22.30;54.20
32027;DHT22;18543;50.848;4.596;2022-09-30T13:15:58;22.30;54.40
32027;DHT22;18543;50.848;4.596;2022-09-30T13:31:30;22.10;54.00
32027;DHT22;18543;50.848;4.596;2022-09-30T13:36:38;21.90;53.00
32027;DHT22;18543;50.848;4.596;2022-09-30T13:42:02;21.90;56.10
32027;DHT22;18543;50.848;4.596;2022-09-30T13:47:26;22.20;56.20
32027;DHT22;18543;50.848;4.596;2022-09-30T13:52:46;22.10;54.10
32027;DHT22;18543;50.848;4.596;2022-09-30T13:55:24;22.10;55.20
32027;DHT22;18543;50.848;4.596;2022-09-30T14:00:46;22.20;54.50
32027;DHT22;18543;50.848;4.596;2022-09-30T14:09:32;22.00;55.10
32027;DHT22;18543;50.848;4.596;2022-09-30T14:22:18;22.00;55.50
32027;DHT22;18543;50.848;4.596;2022-09-30T14:24:46;22.10;55.60
32027;DHT22;18543;50.848;4.596;2022-09-30T14:30:20;21.90;55.20
32027;DHT22;18543;50.848;4.596;2022-09-30T14:33:23;21.70;56.10
32027;DHT22;18543;50.848;4.596;2022-09-30T14:35:53;21.50;56.80
32027;DHT22;18543;50.848;4.596;2022-09-30T14:38:23;21.50;57.10
32027;DHT22;18543;50.848;4.596;2022-09-30T14:40:55;21.70;57.00
32027;DHT22;18543;50.848;4.596;2022-09-30T14:43:26;21.70;56.80
32027;DHT22;18543;50.848;4.596;2022-09-30T14:46:00;21.70;57.20
32027;DHT22;18543;50.848;4.596;2022-09-30T14:48:36;21.80;56.80
32027;DHT22;18543;50.848;4.596;2022-09-30T14:51:14;21.70;56.40
32027;DHT22;18543;50.848;4.596;2022-09-30T14:53:57;21.70;56.50
32027;DHT22;18543;50.848;4.596;2022-09-30T14:56:39;21.70;55.90
32027;DHT22;18543;50.848;4.596;2022-09-30T14:59:18;21.60;55.20
32027;DHT22;18543;50.848;4.596;2022-09-30T15:01:48;21.50;55.60
32027;DHT22;18543;50.848;4.596;2022-09-30T15:04:20;21.30;55.50
32027;DHT22;18543;50.848;4.596;2022-09-30T15:06:50;21.20;56.20
32027;DHT22;18543;50.848;4.596;2022-09-30T15:11:44;21.30;56.50
32027;DHT22;18543;50.848;4.596;2022-09-30T15:14:22;21.30;55.90
32027;DHT22;18543;50.848;4.596;2022-09-30T15:16:56;21.40;56.60
32027;DHT22;18543;50.848;4.596;2022-09-30T15:19:41;21.50;56.30
32027;DHT22;18543;50.848;4.596;2022-09-30T15:22:10;21.60;56.30
32027;DHT22;18543;50.848;4.596;2022-09-30T15:24:38;21.60;56.30
32027;DHT22;18543;50.848;4.596;2022-09-30T15:27:06;21.70;56.30
32027;DHT22;18543;50.848;4.596;2022-09-30T15:30:00;21.70;56.30
32027;DHT22;18543;50.848;4.596;2022-09-30T15:32:30;21.70;56.10
32027;DHT22;18543;50.848;4.596;2022-09-30T15:35:27;21.70;56.50
32027;DHT22;18543;50.848;4.596;2022-09-30T15:38:22;21.80;56.80
32027;DHT22;18543;50.848;4.596;2022-09-30T15:41:06;21.80;56.50
32027;DHT22;18543;50.848;4.596;2022-09-30T15:43:41;21.80;56.20
32027;DHT22;18543;50.848;4.596;2022-09-30T15:46:35;21.80;56.70
32027;DHT22;18543;50.848;4.596;2022-09-30T15:52:35;21.90;56.70
32027;DHT22;18543;50.848;4.596;2022-09-30T15:55:38;21.90;56.30
32027;DHT22;18543;50.848;4.596;2022-09-30T15:58:40;21.90;56.10
32027;DHT22;18543;50.848;4.596;2022-09-30T16:01:31;21.90;56.10
32027;DHT22;18543;50.848;4.596;2022-09-30T16:06:59;21.90;56.30
32027;DHT22;18543;50.848;4.596;2022-09-30T16:09:33;21.90;56.10
32027;DHT22;18543;50.848;4.596;2022-09-30T16:12:16;21.90;56.10
32027;DHT22;18543;50.848;4.596;2022-09-30T16:14:53;21.90;56.10
32027;DHT22;18543;50.848;4.596;2022-09-30T16:17:41;21.90;56.10
32027;DHT22;18543;50.848;4.596;2022-09-30T16:27:46;21.80;56.00
32027;DHT22;18543;50.848;4.596;2022-09-30T16:30:14;21.80;56.20
32027;DHT22;18543;50.848;4.596;2022-09-30T16:32:44;21.80;56.30
32027;DHT22;18543;50.848;4.596;2022-09-30T16:35:26;21.80;56.30
32027;DHT22;18543;50.848;4.596;2022-09-30T16:37:59;21.80;56.30
32027;DHT22;18543;50.848;4.596;2022-09-30T16:40:27;21.80;56.50
32027;DHT22;18543;50.848;4.596;2022-09-30T16:42:54;21.80;56.50
32027;DHT22;18543;50.848;4.596;2022-09-30T16:45:25;21.80;56.60
32027;DHT22;18543;50.848;4.596;2022-09-30T16:47:54;21.80;56.70
32027;DHT22;18543;50.848;4.596;2022-09-30T16:50:30;21.70;56.70
32027;DHT22;18543;50.848;4.596;2022-09-30T16:52:58;21.80;56.70
32027;DHT22;18543;50.848;4.596;2022-09-30T16:55:26;21.70;56.70
32027;DHT22;18543;50.848;4.596;2022-09-30T16:57:55;21.70;56.70
32027;DHT22;18543;50.848;4.596;2022-09-30T17:00:26;21.70;56.60
32027;DHT22;18543;50.848;4.596;2022-09-30T17:02:53;21.70;56.80
32027;DHT22;18543;50.848;4.596;2022-09-30T17:05:22;21.70;56.70
32027;DHT22;18543;50.848;4.596;2022-09-30T17:07:54;21.70;56.60
32027;DHT22;18543;50.848;4.596;2022-09-30T17:10:30;21.70;56.70
32027;DHT22;18543;50.848;4.596;2022-09-30T17:12:58;21.70;56.70
32027;DHT22;18543;50.848;4.596;2022-09-30T17:15:27;21.60;56.80
32027;DHT22;18543;50.848;4.596;2022-09-30T17:17:55;21.60;56.80
32027;DHT22;18543;50.848;4.596;2022-09-30T17:20:23;21.60;56.80
32027;DHT22;18543;50.848;4.596;2022-09-30T17:22:50;21.60;56.80
32027;DHT22;18543;50.848;4.596;2022-09-30T17:25:20;21.60;56.90
32027;DHT22;18543;50.848;4.596;2022-09-30T17:27:47;21.60;56.70
32027;DHT22;18543;50.848;4.596;2022-09-30T17:30:16;21.60;56.80
32027;DHT22;18543;50.848;4.596;2022-09-30T17:32:43;21.60;56.70
32027;DHT22;18543;50.848;4.596;2022-09-30T17:35:11;21.60;56.90
32027;DHT22;18543;50.848;4.596;2022-09-30T17:37:38;21.60;56.90
32027;DHT22;18543;50.848;4.596;2022-09-30T17:40:10;21.60;56.80
32027;DHT22;18543;50.848;4.596;2022-09-30T17:42:56;21.60;56.70
32027;DHT22;18543;50.848;4.596;2022-09-30T17:45:43;21.60;56.80
32027;DHT22;18543;50.848;4.596;2022-09-30T17:48:13;21.50;56.50
32027;DHT22;18543;50.848;4.596;2022-09-30T17:50:43;21.50;56.50
32027;DHT22;18543;50.848;4.596;2022-09-30T17:53:11;21.50;56.50
32027;DHT22;18543;50.848;4.596;2022-09-30T17:55:46;21.50;56.50
32027;DHT22;18543;50.848;4.596;2022-09-30T17:58:16;21.50;56.50
32027;DHT22;18543;50.848;4.596;2022-09-30T18:00:44;21.50;56.50
32027;DHT22;18543;50.848;4.596;2022-09-30T18:03:12;21.50;57.00
32027;DHT22;18543;50.848;4.596;2022-09-30T18:05:39;21.50;56.50
32027;DHT22;18543;50.848;4.596;2022-09-30T18:08:05;21.50;56.50
32027;DHT22;18543;50.848;4.596;2022-09-30T18:10:35;21.50;56.30
32027;DHT22;18543;50.848;4.596;2022-09-30T18:13:04;21.40;56.30
32027;DHT22;18543;50.848;4.596;2022-09-30T18:15:31;21.40;56.30
32027;DHT22;18543;50.848;4.596;2022-09-30T18:17:58;21.40;56.40
32027;DHT22;18543;50.848;4.596;2022-09-30T18:20:25;21.40;56.30
32027;DHT22;18543;50.848;4.596;2022-09-30T18:22:53;21.40;56.40
32027;DHT22;18543;50.848;4.596;2022-09-30T18:25:19;21.40;56.30
32027;DHT22;18543;50.848;4.596;2022-09-30T18:27:57;21.40;56.30
32027;DHT22;18543;50.848;4.596;2022-09-30T18:30:25;21.40;56.30
32027;DHT22;18543;50.848;4.596;2022-09-30T18:32:53;21.40;56.30
32027;DHT22;18543;50.848;4.596;2022-09-30T18:35:22;21.40;56.20
32027;DHT22;18543;50.848;4.596;2022-09-30T18:37:51;21.30;56.10
32027;DHT22;18543;50.848;4.596;2022-09-30T18:40:21;21.30;56.20
32027;DHT22;18543;50.848;4.596;2022-09-30T18:43:02;21.30;56.10
32027;DHT22;18543;50.848;4.596;2022-09-30T18:45:32;21.30;56.30
32027;DHT22;18543;50.848;4.596;2022-09-30T18:48:04;21.30;56.20
32027;DHT22;18543;50.848;4.596;2022-09-30T18:50:32;21.30;56.70
32027;DHT22;18543;50.848;4.596;2022-09-30T18:53:01;21.30;56.10